Marlin Amber — V7HD7 — position and weather

sailwx.info

Track history (hours):
 
Tides and Currents Weather Stations Pressure Air Temp Water Temp Dewpoint Dewpoint Depression Visibility Wind Speed Wind Dir Waves Ship Positions

Marlin Amber

Last reported at 2017-Nov-20 00:27 UTC. Time now 2017-Nov-23 23:58 UTC.
Position N 38°49' W 030°29'.

Length 183 m; draft 9.8 m.

Type: Tanker. MMSI: 538005802.

Date/timePositionNaut miles runAvg speedWind from/ knotsBaromVisibWave heightAir tempDewpointWater temp
2017-Nov-20 00:27N 38°49' W 030°29'613.1
2017-Nov-20 00:00N 38°52' W 030°23'612.5
2017-Nov-19 23:30N 38°56' W 030°16'612.6
2017-Nov-19 23:00N 38°60' W 030°10'612.8
2017-Nov-19 22:30N 39°03' W 030°03'612.9
2017-Nov-19 22:01N 39°07' W 029°56'612.8
2017-Nov-19 21:30N 39°11' W 029°49'713.1
2017-Nov-19 21:00N 39°14' W 029°42'713.2
2017-Nov-19 20:31N 39°18' W 029°35'713.1
2017-Nov-19 20:00N 39°22' W 029°28'612.9
2017-Nov-19 19:30N 39°25' W 029°21'713.0
2017-Nov-19 19:00N 39°29' W 029°15'612.9
2017-Nov-19 18:30N 39°33' W 029°08'612.6
2017-Nov-19 18:00N 39°36' W 029°01'612.7
2017-Nov-19 17:31N 39°40' W 028°54'612.6
2017-Nov-19 17:00N 39°43' W 028°47'612.3
2017-Nov-19 16:30N 39°47' W 028°41'612.5
2017-Nov-19 16:00N 39°51' W 028°34'612.2
2017-Nov-19 15:30N 39°54' W 028°28'712.3
2017-Nov-19 14:56N 39°58' W 028°20'512.2
2017-Nov-19 14:30N 40°01' W 028°14'812.2
2017-Nov-19 13:52N 40°05' W 028°06'611.7
2017-Nov-19 13:19N 40°09' W 027°59'  
2017-Nov-16 06:30N 49°41' W 007°38'712.9
2017-Nov-16 05:59N 49°41' W 007°28'3412.5
2017-Nov-16 03:14N 49°42' W 006°35'412.2
2017-Nov-16 02:56N 49°42' W 006°29'612.4
2017-Nov-16 02:29N 49°42' W 006°21'612.4
2017-Nov-16 02:00N 49°43' W 006°11'712.5
2017-Nov-16 01:28N 49°43' W 006°01'812.8
2017-Nov-16 00:52N 49°44' W 005°49'1411.8
2017-Nov-15 23:39N 49°46' W 005°27'211.2
2017-Nov-15 23:30N 49°46' W 005°25'611.3
2017-Nov-15 23:00N 49°47' W 005°16'711.9
2017-Nov-15 22:26N 49°47' W 005°05'814.4
2017-Nov-15 21:51N 49°48' W 004°53'514.5
2017-Nov-15 21:31N 49°49' W 004°45'814.5
2017-Nov-15 20:58N 49°50' W 004°33'714.5
2017-Nov-15 20:30N 49°50' W 004°23'714.3
2017-Nov-15 20:00N 49°51' W 004°11'714.1
2017-Nov-15 19:30N 49°52' W 004°01'713.7
2017-Nov-15 19:00N 49°53' W 003°50'713.3
2017-Nov-15 18:31N 49°54' W 003°40'712.8
2017-Nov-15 18:00N 49°55' W 003°30'612.5
2017-Nov-15 17:30N 49°55' W 003°21'1312.1
2017-Nov-15 16:26N 49°58' W 003°01'512.2
2017-Nov-15 15:59N 49°59' W 002°53'612.2
2017-Nov-15 15:30N 50°01' W 002°44'712.6
2017-Nov-15 14:58N 50°03' W 002°34'2013.9
2017-Nov-15 13:31N 50°08' W 002°03'015.1
2017-Nov-15 13:30N 50°08' W 002°03'815.4
2017-Nov-15 13:00N 50°10' W 001°51'815.6
2017-Nov-15 12:30N 50°12' W 001°40'815.9
2017-Nov-15 12:00N 50°14' W 001°27'816.1
2017-Nov-15 11:29N 50°16' W 001°15'3214.7
2017-Nov-15 09:18N 50°24' W 000°26'413.4
2017-Nov-15 09:00N 50°25' W 000°20'612.9
2017-Nov-15 08:30N 50°27' W 000°11'612.5
2017-Nov-15 08:00N 50°29' W 000°01'612.1
2017-Nov-15 07:30N 50°31' E 000°08'611.8
2017-Nov-15 07:00N 50°32' E 000°17'611.5
2017-Nov-15 06:30N 50°34' E 000°26'611.7
2017-Nov-15 06:00N 50°36' E 000°34'612.3
2017-Nov-15 05:30N 50°39' E 000°42'613.0
2017-Nov-15 05:00N 50°43' E 000°51'713.8
2017-Nov-15 04:30N 50°47' E 000°60'714.4
2017-Nov-15 04:01N 50°50' E 001°10'814.9
2017-Nov-15 03:30N 50°55' E 001°18'815.1
2017-Nov-15 03:01N 51°01' E 001°26'714.3
2017-Nov-15 02:31N 51°06' E 001°34'713.7
2017-Nov-15 02:00N 51°11' E 001°42'713.1
2017-Nov-15 01:30N 51°16' E 001°49'612.5
2017-Nov-15 01:00N 51°21' E 001°54'612.2
2017-Nov-15 00:30N 51°27' E 001°59'611.7
2017-Nov-15 00:00N 51°31' E 002°05'611.6
2017-Nov-14 23:30N 51°36' E 002°11'5111.6
2017-Nov-14 19:08N 52°03' E 003°20'213.4
2017-Nov-14 19:00N 52°03' E 003°23'713.5
2017-Nov-14 18:30N 52°04' E 003°34'713.6
2017-Nov-14 18:00N 52°05' E 003°45'713.7
2017-Nov-14 17:30N 52°06' E 003°56'713.1
2017-Nov-14 17:00N 52°09' E 004°05'510.0
2017-Nov-14 16:30N 52°12' E 004°11'0 0.7
2017-Nov-14 16:00N 52°12' E 004°12'0 0.0
2017-Nov-14 15:30N 52°12' E 004°12'0 0.0
2017-Nov-14 15:00N 52°12' E 004°12'0 0.0
2017-Nov-14 14:30N 52°12' E 004°12'0 0.0
2017-Nov-14 14:00N 52°12' E 004°12'0 0.0
2017-Nov-14 13:30N 52°12' E 004°12'0 0.0
2017-Nov-14 13:00N 52°12' E 004°12'0 0.0
2017-Nov-14 12:30N 52°12' E 004°12'0 0.0
2017-Nov-14 12:00N 52°12' E 004°12'0 0.0
2017-Nov-14 11:30N 52°12' E 004°12'0 0.0
2017-Nov-14 11:00N 52°12' E 004°12'0 0.0
2017-Nov-14 10:30N 52°12' E 004°12'0 0.1
2017-Nov-14 10:00N 52°12' E 004°12'0 0.1
2017-Nov-14 09:30N 52°12' E 004°12'0 0.0
2017-Nov-14 09:00N 52°12' E 004°12'0 0.0
2017-Nov-14 08:30N 52°12' E 004°12'0 0.0
2017-Nov-14 08:00N 52°12' E 004°12'0 0.0
2017-Nov-14 07:30N 52°12' E 004°12'0 0.1
2017-Nov-14 07:00N 52°12' E 004°12'0 0.1
2017-Nov-14 06:30N 52°12' E 004°12'0 0.0
2017-Nov-14 06:00N 52°12' E 004°12'0 0.0
2017-Nov-14 05:30N 52°12' E 004°12'0 0.1
2017-Nov-14 05:00N 52°12' E 004°12'0 0.0
2017-Nov-14 04:30N 52°12' E 004°12'0 0.0
2017-Nov-14 04:00N 52°12' E 004°12'0 0.0
2017-Nov-14 03:30N 52°12' E 004°12'0 0.1
2017-Nov-14 03:00N 52°12' E 004°12'0 0.0
2017-Nov-14 02:30N 52°12' E 004°12'0 0.0
2017-Nov-14 02:00N 52°12' E 004°12'0 0.0
2017-Nov-14 01:30N 52°12' E 004°12'0 0.1
2017-Nov-14 01:00N 52°12' E 004°12'0 0.0
2017-Nov-14 00:30N 52°12' E 004°12'0 0.0
2017-Nov-14 00:00N 52°12' E 004°12'0 0.0
2017-Nov-13 23:30N 52°12' E 004°12'0 0.0
2017-Nov-13 23:00N 52°12' E 004°12'0 0.1
2017-Nov-13 22:30N 52°12' E 004°12'0 0.1
2017-Nov-13 22:00N 52°12' E 004°12'8 0.4
2017-Nov-13 02:00N 52°19' E 004°07'1 1.2
2017-Nov-13 01:31N 52°19' E 004°07'1 1.2
2017-Nov-13 01:00N 52°18' E 004°08'1 1.1
2017-Nov-13 00:30N 52°18' E 004°09'1 1.2
2017-Nov-13 00:00N 52°18' E 004°09'1 1.7
2017-Nov-12 23:31N 52°17' E 004°10'1 1.5
2017-Nov-12 23:00N 52°17' E 004°10'1 1.8
2017-Nov-12 22:30N 52°16' E 004°09'1 2.0
2017-Nov-12 22:00N 52°15' E 004°08'1 1.4
2017-Nov-12 21:31N 52°15' E 004°08'0 0.8
2017-Nov-12 21:00N 52°15' E 004°08'1 1.1
2017-Nov-12 20:30N 52°15' E 004°08'1 1.3
2017-Nov-12 20:00N 52°16' E 004°08'1 1.5
2017-Nov-12 19:31N 52°17' E 004°08'1 1.7
2017-Nov-12 19:00N 52°18' E 004°08'1 2.0
2017-Nov-12 18:30N 52°19' E 004°08'1 2.1
2017-Nov-12 18:00N 52°20' E 004°08'1 1.2
2017-Nov-12 17:30N 52°20' E 004°08'1 2.0
2017-Nov-12 17:00N 52°19' E 004°09'1 1.5
2017-Nov-12 16:30N 52°19' E 004°09'1 2.8
2017-Nov-12 16:00N 52°17' E 004°10'2 3.2
2017-Nov-12 15:30N 52°16' E 004°11'1 2.8
2017-Nov-12 15:00N 52°15' E 004°12'1 1.4
2017-Nov-12 14:30N 52°14' E 004°12'1 1.2
2017-Nov-12 14:00N 52°14' E 004°11'2 3.7
2017-Nov-12 13:30N 52°15' E 004°15'2 3.9
2017-Nov-12 13:00N 52°15' E 004°18'1 1.2
2017-Nov-12 12:30N 52°15' E 004°17'1 1.4
2017-Nov-12 12:00N 52°15' E 004°15'1 1.6
2017-Nov-12 11:30N 52°15' E 004°14'1 1.7
2017-Nov-12 11:00N 52°15' E 004°13'2 3.5
2017-Nov-12 10:30N 52°13' E 004°12'3 6.9
2017-Nov-12 10:00N 52°10' E 004°09'4 8.3
2017-Nov-12 09:31N 52°08' E 004°03'611.5
2017-Nov-12 09:00N 52°06' E 003°55'612.8
2017-Nov-12 08:30N 52°04' E 003°44'612.0
2017-Nov-12 08:00N 52°06' E 003°35'41310.9
2017-Nov-10 18:07N 57°47' E 010°21'212.3
2017-Nov-10 17:59N 57°47' E 010°24'612.1
2017-Nov-10 17:30N 57°48' E 010°34'612.0
2017-Nov-10 17:00N 57°48' E 010°46'611.9
2017-Nov-10 16:30N 57°45' E 010°54'611.8
2017-Nov-10 16:01N 57°40' E 011°02'713.3
2017-Nov-10 15:30N 57°36' E 011°11'714.2
2017-Nov-10 15:00N 57°31' E 011°20'713.5
2017-Nov-10 14:30N 57°25' E 011°28'713.5
2017-Nov-10 14:00N 57°19' E 011°32'713.5
2017-Nov-10 13:30N 57°13' E 011°36'813.5
2017-Nov-10 12:54N 57°05' E 011°41'10611.8
2017-Nov-10 03:57N 55°21' E 011°02'511.6
2017-Nov-10 03:30N 55°16' E 011°04'611.5
2017-Nov-10 03:00N 55°11' E 011°04'612.1
2017-Nov-10 02:30N 55°05' E 011°02'612.2
2017-Nov-10 02:01N 54°59' E 011°00'611.9
2017-Nov-10 01:30N 54°54' E 010°54'611.1
2017-Nov-10 01:00N 54°48' E 010°52'612.5
2017-Nov-10 00:31N 54°42' E 010°53'  
Track history (hours):
 
Tides and Currents Weather Stations Pressure Air Temp Water Temp Dewpoint Dewpoint Depression Visibility Wind Speed Wind Dir Waves Ship Positions

Marlin Amber

Last reported at 2017-Nov-20 00:27 UTC. Time now 2017-Nov-23 23:58 UTC.
Position N 38°49' W 030°29'.

Length 183 m; draft 9.8 m.

Type: Tanker. MMSI: 538005802.

Date/timePositionNaut miles runAvg speedWind from/ knotsBaromVisibWave heightAir tempDewpointWater temp
2017-Nov-20 00:27N 38°49' W 030°29'613.1
2017-Nov-20 00:00N 38°52' W 030°23'612.5
2017-Nov-19 23:30N 38°56' W 030°16'612.6
2017-Nov-19 23:00N 38°60' W 030°10'612.8
2017-Nov-19 22:30N 39°03' W 030°03'612.9
2017-Nov-19 22:01N 39°07' W 029°56'612.8
2017-Nov-19 21:30N 39°11' W 029°49'713.1
2017-Nov-19 21:00N 39°14' W 029°42'713.2
2017-Nov-19 20:31N 39°18' W 029°35'713.1
2017-Nov-19 20:00N 39°22' W 029°28'612.9
2017-Nov-19 19:30N 39°25' W 029°21'713.0
2017-Nov-19 19:00N 39°29' W 029°15'612.9
2017-Nov-19 18:30N 39°33' W 029°08'612.6
2017-Nov-19 18:00N 39°36' W 029°01'612.7
2017-Nov-19 17:31N 39°40' W 028°54'612.6
2017-Nov-19 17:00N 39°43' W 028°47'612.3
2017-Nov-19 16:30N 39°47' W 028°41'612.5
2017-Nov-19 16:00N 39°51' W 028°34'612.2
2017-Nov-19 15:30N 39°54' W 028°28'712.3
2017-Nov-19 14:56N 39°58' W 028°20'512.2
2017-Nov-19 14:30N 40°01' W 028°14'812.2
2017-Nov-19 13:52N 40°05' W 028°06'611.7
2017-Nov-19 13:19N 40°09' W 027°59'  
2017-Nov-16 06:30N 49°41' W 007°38'712.9
2017-Nov-16 05:59N 49°41' W 007°28'3412.5
2017-Nov-16 03:14N 49°42' W 006°35'412.2
2017-Nov-16 02:56N 49°42' W 006°29'612.4
2017-Nov-16 02:29N 49°42' W 006°21'612.4
2017-Nov-16 02:00N 49°43' W 006°11'712.5
2017-Nov-16 01:28N 49°43' W 006°01'812.8
2017-Nov-16 00:52N 49°44' W 005°49'1411.8
2017-Nov-15 23:39N 49°46' W 005°27'211.2
2017-Nov-15 23:30N 49°46' W 005°25'611.3
2017-Nov-15 23:00N 49°47' W 005°16'711.9
2017-Nov-15 22:26N 49°47' W 005°05'814.4
2017-Nov-15 21:51N 49°48' W 004°53'514.5
2017-Nov-15 21:31N 49°49' W 004°45'814.5
2017-Nov-15 20:58N 49°50' W 004°33'714.5
2017-Nov-15 20:30N 49°50' W 004°23'714.3
2017-Nov-15 20:00N 49°51' W 004°11'714.1
2017-Nov-15 19:30N 49°52' W 004°01'713.7
2017-Nov-15 19:00N 49°53' W 003°50'713.3
2017-Nov-15 18:31N 49°54' W 003°40'712.8
2017-Nov-15 18:00N 49°55' W 003°30'612.5
2017-Nov-15 17:30N 49°55' W 003°21'1312.1
2017-Nov-15 16:26N 49°58' W 003°01'512.2
2017-Nov-15 15:59N 49°59' W 002°53'612.2
2017-Nov-15 15:30N 50°01' W 002°44'712.6
2017-Nov-15 14:58N 50°03' W 002°34'2013.9
2017-Nov-15 13:31N 50°08' W 002°03'015.1
2017-Nov-15 13:30N 50°08' W 002°03'815.4
2017-Nov-15 13:00N 50°10' W 001°51'815.6
2017-Nov-15 12:30N 50°12' W 001°40'815.9
2017-Nov-15 12:00N 50°14' W 001°27'816.1
2017-Nov-15 11:29N 50°16' W 001°15'3214.7
2017-Nov-15 09:18N 50°24' W 000°26'413.4
2017-Nov-15 09:00N 50°25' W 000°20'612.9
2017-Nov-15 08:30N 50°27' W 000°11'612.5
2017-Nov-15 08:00N 50°29' W 000°01'612.1
2017-Nov-15 07:30N 50°31' E 000°08'611.8
2017-Nov-15 07:00N 50°32' E 000°17'611.5
2017-Nov-15 06:30N 50°34' E 000°26'611.7
2017-Nov-15 06:00N 50°36' E 000°34'612.3
2017-Nov-15 05:30N 50°39' E 000°42'613.0
2017-Nov-15 05:00N 50°43' E 000°51'713.8
2017-Nov-15 04:30N 50°47' E 000°60'714.4
2017-Nov-15 04:01N 50°50' E 001°10'814.9
2017-Nov-15 03:30N 50°55' E 001°18'815.1
2017-Nov-15 03:01N 51°01' E 001°26'714.3
2017-Nov-15 02:31N 51°06' E 001°34'713.7
2017-Nov-15 02:00N 51°11' E 001°42'713.1
2017-Nov-15 01:30N 51°16' E 001°49'612.5
2017-Nov-15 01:00N 51°21' E 001°54'612.2
2017-Nov-15 00:30N 51°27' E 001°59'611.7
2017-Nov-15 00:00N 51°31' E 002°05'611.6
2017-Nov-14 23:30N 51°36' E 002°11'5111.6
2017-Nov-14 19:08N 52°03' E 003°20'213.4
2017-Nov-14 19:00N 52°03' E 003°23'713.5
2017-Nov-14 18:30N 52°04' E 003°34'713.6
2017-Nov-14 18:00N 52°05' E 003°45'713.7
2017-Nov-14 17:30N 52°06' E 003°56'713.1
2017-Nov-14 17:00N 52°09' E 004°05'510.0
2017-Nov-14 16:30N 52°12' E 004°11'0 0.7
2017-Nov-14 16:00N 52°12' E 004°12'0 0.0
2017-Nov-14 15:30N 52°12' E 004°12'0 0.0
2017-Nov-14 15:00N 52°12' E 004°12'0 0.0
2017-Nov-14 14:30N 52°12' E 004°12'0 0.0
2017-Nov-14 14:00N 52°12' E 004°12'0 0.0
2017-Nov-14 13:30N 52°12' E 004°12'0 0.0
2017-Nov-14 13:00N 52°12' E 004°12'0 0.0
2017-Nov-14 12:30N 52°12' E 004°12'0 0.0
2017-Nov-14 12:00N 52°12' E 004°12'0 0.0
2017-Nov-14 11:30N 52°12' E 004°12'0 0.0
2017-Nov-14 11:00N 52°12' E 004°12'0 0.0
2017-Nov-14 10:30N 52°12' E 004°12'0 0.1
2017-Nov-14 10:00N 52°12' E 004°12'0 0.1
2017-Nov-14 09:30N 52°12' E 004°12'0 0.0
2017-Nov-14 09:00N 52°12' E 004°12'0 0.0
2017-Nov-14 08:30N 52°12' E 004°12'0 0.0
2017-Nov-14 08:00N 52°12' E 004°12'0 0.0
2017-Nov-14 07:30N 52°12' E 004°12'0 0.1
2017-Nov-14 07:00N 52°12' E 004°12'0 0.1
2017-Nov-14 06:30N 52°12' E 004°12'0 0.0
2017-Nov-14 06:00N 52°12' E 004°12'0 0.0
2017-Nov-14 05:30N 52°12' E 004°12'0 0.1
2017-Nov-14 05:00N 52°12' E 004°12'0 0.0
2017-Nov-14 04:30N 52°12' E 004°12'0 0.0
2017-Nov-14 04:00N 52°12' E 004°12'0 0.0
2017-Nov-14 03:30N 52°12' E 004°12'0 0.1
2017-Nov-14 03:00N 52°12' E 004°12'0 0.0
2017-Nov-14 02:30N 52°12' E 004°12'0 0.0
2017-Nov-14 02:00N 52°12' E 004°12'0 0.0
2017-Nov-14 01:30N 52°12' E 004°12'0 0.1
2017-Nov-14 01:00N 52°12' E 004°12'0 0.0
2017-Nov-14 00:30N 52°12' E 004°12'0 0.0
2017-Nov-14 00:00N 52°12' E 004°12'0 0.0
2017-Nov-13 23:30N 52°12' E 004°12'0 0.0
2017-Nov-13 23:00N 52°12' E 004°12'0 0.1
2017-Nov-13 22:30N 52°12' E 004°12'0 0.1
2017-Nov-13 22:00N 52°12' E 004°12'8 0.4
2017-Nov-13 02:00N 52°19' E 004°07'1 1.2
2017-Nov-13 01:31N 52°19' E 004°07'1 1.2
2017-Nov-13 01:00N 52°18' E 004°08'1 1.1
2017-Nov-13 00:30N 52°18' E 004°09'1 1.2
2017-Nov-13 00:00N 52°18' E 004°09'1 1.7
2017-Nov-12 23:31N 52°17' E 004°10'1 1.5
2017-Nov-12 23:00N 52°17' E 004°10'1 1.8
2017-Nov-12 22:30N 52°16' E 004°09'1 2.0
2017-Nov-12 22:00N 52°15' E 004°08'1 1.4
2017-Nov-12 21:31N 52°15' E 004°08'0 0.8
2017-Nov-12 21:00N 52°15' E 004°08'1 1.1
2017-Nov-12 20:30N 52°15' E 004°08'1 1.3
2017-Nov-12 20:00N 52°16' E 004°08'1 1.5
2017-Nov-12 19:31N 52°17' E 004°08'1 1.7
2017-Nov-12 19:00N 52°18' E 004°08'1 2.0
2017-Nov-12 18:30N 52°19' E 004°08'1 2.1
2017-Nov-12 18:00N 52°20' E 004°08'1 1.2
2017-Nov-12 17:30N 52°20' E 004°08'1 2.0
2017-Nov-12 17:00N 52°19' E 004°09'1 1.5
2017-Nov-12 16:30N 52°19' E 004°09'1 2.8
2017-Nov-12 16:00N 52°17' E 004°10'2 3.2
2017-Nov-12 15:30N 52°16' E 004°11'1 2.8
2017-Nov-12 15:00N 52°15' E 004°12'1 1.4
2017-Nov-12 14:30N 52°14' E 004°12'1 1.2
2017-Nov-12 14:00N 52°14' E 004°11'2 3.7
2017-Nov-12 13:30N 52°15' E 004°15'2 3.9
2017-Nov-12 13:00N 52°15' E 004°18'1 1.2
2017-Nov-12 12:30N 52°15' E 004°17'1 1.4
2017-Nov-12 12:00N 52°15' E 004°15'1 1.6
2017-Nov-12 11:30N 52°15' E 004°14'1 1.7
2017-Nov-12 11:00N 52°15' E 004°13'2 3.5
2017-Nov-12 10:30N 52°13' E 004°12'3 6.9
2017-Nov-12 10:00N 52°10' E 004°09'4 8.3
2017-Nov-12 09:31N 52°08' E 004°03'611.5
2017-Nov-12 09:00N 52°06' E 003°55'612.8
2017-Nov-12 08:30N 52°04' E 003°44'612.0
2017-Nov-12 08:00N 52°06' E 003°35'41310.9
2017-Nov-10 18:07N 57°47' E 010°21'212.3
2017-Nov-10 17:59N 57°47' E 010°24'612.1
2017-Nov-10 17:30N 57°48' E 010°34'612.0
2017-Nov-10 17:00N 57°48' E 010°46'611.9
2017-Nov-10 16:30N 57°45' E 010°54'611.8
2017-Nov-10 16:01N 57°40' E 011°02'713.3
2017-Nov-10 15:30N 57°36' E 011°11'714.2
2017-Nov-10 15:00N 57°31' E 011°20'713.5
2017-Nov-10 14:30N 57°25' E 011°28'713.5
2017-Nov-10 14:00N 57°19' E 011°32'713.5
2017-Nov-10 13:30N 57°13' E 011°36'813.5
2017-Nov-10 12:54N 57°05' E 011°41'10611.8
2017-Nov-10 03:57N 55°21' E 011°02'511.6
2017-Nov-10 03:30N 55°16' E 011°04'611.5
2017-Nov-10 03:00N 55°11' E 011°04'612.1
2017-Nov-10 02:30N 55°05' E 011°02'612.2
2017-Nov-10 02:01N 54°59' E 011°00'611.9
2017-Nov-10 01:30N 54°54' E 010°54'611.1
2017-Nov-10 01:00N 54°48' E 010°52'612.5
2017-Nov-10 00:31N 54°42' E 010°53'  

Dump ship's entire track history